createdAt,value
2019-04-10T00:00:51.119Z,0.00
2019-04-10T00:01:49.776Z,0.00
2019-04-10T00:02:50.112Z,0.00
2019-04-10T00:03:50.400Z,0.00
2019-04-10T00:04:49.717Z,0.00
2019-04-10T00:05:50.019Z,0.00
2019-04-10T00:06:50.073Z,0.00
2019-04-10T00:07:50.030Z,0.00
2019-04-10T00:08:50.575Z,0.00
2019-04-10T00:09:49.660Z,0.00
2019-04-10T00:10:49.652Z,0.00
2019-04-10T00:11:49.679Z,0.00
2019-04-10T00:12:49.800Z,0.00
2019-04-10T00:13:49.627Z,0.00
2019-04-10T00:14:50.456Z,0.00
2019-04-10T00:15:50.710Z,0.00
2019-04-10T00:16:49.589Z,0.00
2019-04-10T00:17:49.611Z,0.00
2019-04-10T00:18:50.549Z,0.00
2019-04-10T00:19:49.560Z,0.00
2019-04-10T00:20:49.547Z,0.00
2019-04-10T00:21:49.536Z,0.00
2019-04-10T00:22:50.610Z,0.00
2019-04-10T00:23:49.519Z,0.00
2019-04-10T00:24:50.477Z,0.00
2019-04-10T00:25:49.491Z,0.00
2019-04-10T00:26:50.094Z,0.00
2019-04-10T00:27:50.600Z,0.00
2019-04-10T00:28:49.775Z,0.00
2019-04-10T00:29:49.451Z,0.00
2019-04-10T00:30:49.470Z,0.00
2019-04-10T00:31:49.431Z,0.00
2019-04-10T00:32:49.446Z,0.00
2019-04-10T00:33:49.412Z,0.00
2019-04-10T00:34:49.736Z,0.00
2019-04-10T00:35:49.870Z,0.00
2019-04-10T00:36:49.376Z,0.00
2019-04-10T00:37:49.395Z,0.00
2019-04-10T00:38:50.318Z,0.00
2019-04-10T00:39:49.350Z,0.00
2019-04-10T00:40:49.947Z,0.00
2019-04-10T00:41:49.391Z,0.00
2019-04-10T00:42:49.586Z,0.00
2019-04-10T00:43:49.314Z,0.00
2019-04-10T00:44:50.088Z,0.00
2019-04-10T00:45:49.436Z,0.00
2019-04-10T00:46:49.272Z,0.00
2019-04-10T00:47:49.287Z,0.00
2019-04-10T00:48:50.230Z,0.00
2019-04-10T00:49:50.282Z,0.00
2019-04-10T00:50:49.233Z,0.00
2019-04-10T00:51:49.990Z,0.00
2019-04-10T00:52:49.392Z,0.00
2019-04-10T00:53:49.773Z,0.00
2019-04-10T00:54:49.187Z,0.00
2019-04-10T00:55:50.206Z,0.00
2019-04-10T00:56:49.173Z,0.00
2019-04-10T00:57:49.801Z,0.00
2019-04-10T00:58:49.161Z,0.00
2019-04-10T00:59:49.142Z,0.00
2019-04-10T01:00:50.282Z,0.00
2019-04-10T01:01:49.137Z,0.00
2019-04-10T01:02:49.207Z,0.00
2019-04-10T01:03:50.729Z,0.00
2019-04-10T01:04:49.114Z,0.00
2019-04-10T01:05:49.229Z,0.00
2019-04-10T01:06:49.060Z,0.00
2019-04-10T01:07:49.075Z,0.00
2019-04-10T01:08:49.040Z,0.00
2019-04-10T01:09:49.905Z,0.00
2019-04-10T01:10:49.020Z,0.00
2019-04-10T01:11:49.750Z,0.00
2019-04-10T01:12:49.157Z,0.00
2019-04-10T01:13:50.124Z,0.00
2019-04-10T01:14:49.785Z,0.00
2019-04-10T01:15:49.091Z,0.00
2019-04-10T01:16:49.432Z,0.00
2019-04-10T01:17:48.978Z,0.00
2019-04-10T01:18:48.939Z,0.00
2019-04-10T01:19:48.936Z,0.00
2019-04-10T01:20:48.914Z,0.00
2019-04-10T01:21:48.906Z,0.00
2019-04-10T01:22:49.754Z,0.00
2019-04-10T01:23:49.125Z,0.00
2019-04-10T01:24:48.878Z,0.00
2019-04-10T01:25:48.875Z,0.00
2019-04-10T01:26:49.627Z,0.00
2019-04-10T01:27:49.955Z,0.00
2019-04-10T01:28:49.189Z,0.00
2019-04-10T01:29:49.599Z,0.00
2019-04-10T01:30:48.807Z,0.00
2019-04-10T01:31:48.795Z,0.00
2019-04-10T01:32:48.789Z,0.00
2019-04-10T01:33:49.245Z,0.00
2019-04-10T01:34:49.706Z,0.00
2019-04-10T01:35:48.851Z,0.00
2019-04-10T01:36:48.756Z,0.00
2019-04-10T01:37:54.761Z,0.00
2019-04-10T01:38:49.760Z,0.00
2019-04-10T01:39:48.728Z,0.00
2019-04-10T01:40:48.705Z,0.00
2019-04-10T01:41:48.691Z,0.00
2019-04-10T01:43:02.484Z,0.00
2019-04-10T01:43:49.698Z,0.00
2019-04-10T01:44:49.037Z,0.00
2019-04-10T01:45:49.509Z,0.00
2019-04-10T01:46:48.709Z,0.00
2019-04-10T01:47:48.632Z,0.00
2019-04-10T01:48:49.116Z,0.00
2019-04-10T01:49:48.616Z,0.00
2019-04-10T01:50:48.651Z,0.00
2019-04-10T01:51:49.692Z,0.00
2019-04-10T01:52:49.166Z,0.00
2019-04-10T01:53:48.591Z,0.00
2019-04-10T01:54:49.237Z,0.00
2019-04-10T01:55:49.280Z,0.00
2019-04-10T01:56:48.525Z,0.00
2019-04-10T01:57:48.544Z,0.00
2019-04-10T01:58:49.516Z,0.00
2019-04-10T01:59:48.509Z,0.00
2019-04-10T02:00:48.494Z,0.00
2019-04-10T02:01:48.478Z,0.00
2019-04-10T02:02:49.539Z,0.00
2019-04-10T02:03:48.484Z,0.00
2019-04-10T02:04:51.322Z,0.00
2019-04-10T02:05:49.183Z,0.00
2019-04-10T02:06:49.517Z,0.00
2019-04-10T02:07:59.426Z,0.00
2019-04-10T02:08:49.963Z,0.00
2019-04-10T02:09:48.397Z,0.00
2019-04-10T02:10:48.387Z,0.00
2019-04-10T02:11:48.378Z,0.00
2019-04-10T02:12:48.368Z,0.00
2019-04-10T02:13:48.379Z,0.00
2019-04-10T02:14:48.872Z,0.00
2019-04-10T02:15:48.332Z,0.00
2019-04-10T02:16:49.350Z,0.00
2019-04-10T02:17:48.675Z,0.00
2019-04-10T02:18:48.331Z,0.00
2019-04-10T02:19:48.291Z,0.00
2019-04-10T02:20:49.346Z,0.00
2019-04-10T02:21:48.269Z,0.00
2019-04-10T02:22:48.259Z,0.00
2019-04-10T02:23:48.292Z,0.00
2019-04-10T02:24:49.312Z,0.00
2019-04-10T02:25:49.307Z,0.00
2019-04-10T02:26:48.216Z,0.00
2019-04-10T02:27:48.772Z,0.00
2019-04-10T02:28:48.196Z,0.00
2019-04-10T02:29:48.210Z,0.00
2019-04-10T02:30:48.177Z,0.00
2019-04-10T02:31:48.543Z,0.00
2019-04-10T02:32:50.361Z,0.00
2019-04-10T02:33:49.651Z,0.00
2019-04-10T02:34:49.176Z,0.00
2019-04-10T02:35:48.383Z,0.00
2019-04-10T02:36:48.827Z,0.00
2019-04-10T02:37:52.729Z,0.00
2019-04-10T02:39:01.954Z,0.00
2019-04-10T02:39:52.860Z,0.00
2019-04-10T02:40:50.075Z,0.00
2019-04-10T02:41:48.056Z,0.00
2019-04-10T02:42:49.292Z,0.00
2019-04-10T02:43:48.074Z,0.00
2019-04-10T02:44:48.457Z,0.00
2019-04-10T02:45:49.343Z,0.00
2019-04-10T02:46:49.766Z,0.00
2019-04-10T02:47:48.001Z,0.00
2019-04-10T02:48:47.989Z,0.00
2019-04-10T02:49:49.289Z,0.00
2019-04-10T02:50:49.313Z,0.00
2019-04-10T02:51:49.754Z,0.00
2019-04-10T02:52:50.321Z,0.00
2019-04-10T02:53:48.167Z,0.00
2019-04-10T02:54:49.069Z,0.00
2019-04-10T02:55:49.340Z,0.00
2019-04-10T02:56:49.529Z,0.00
2019-04-10T02:57:47.895Z,0.00
2019-04-10T02:58:49.201Z,0.00
2019-04-10T02:59:47.969Z,0.00
2019-04-10T03:00:48.762Z,0.00
2019-04-10T03:01:49.600Z,0.00
2019-04-10T03:02:49.523Z,0.00
2019-04-10T03:03:47.829Z,0.00
2019-04-10T03:04:49.092Z,0.00
2019-04-10T03:05:48.801Z,0.00
2019-04-10T03:06:47.950Z,0.00
2019-04-10T03:07:48.305Z,0.00
2019-04-10T03:09:02.400Z,0.00
2019-04-10T03:10:00.515Z,0.00
2019-04-10T03:10:53.368Z,0.00
2019-04-10T03:11:49.839Z,0.00
2019-04-10T03:12:48.427Z,0.00
2019-04-10T03:13:48.975Z,0.00
2019-04-10T03:14:49.385Z,0.00
2019-04-10T03:15:48.203Z,0.00
2019-04-10T03:16:47.927Z,0.00
2019-04-10T03:17:48.343Z,0.00
2019-04-10T03:18:47.670Z,0.00
2019-04-10T03:19:47.824Z,0.00
2019-04-10T03:20:48.745Z,0.00
2019-04-10T03:21:47.640Z,0.00
2019-04-10T03:22:47.626Z,0.00
2019-04-10T03:23:47.626Z,0.00
2019-04-10T03:24:48.510Z,0.00
2019-04-10T03:25:47.606Z,0.00
2019-04-10T03:26:47.886Z,0.00
2019-04-10T03:27:47.581Z,0.00
2019-04-10T03:28:47.567Z,0.00
2019-04-10T03:29:48.463Z,0.00
2019-04-10T03:30:49.365Z,0.00
2019-04-10T03:31:48.222Z,0.00
2019-04-10T03:32:53.774Z,0.00
2019-04-10T03:33:51.783Z,0.00
2019-04-10T03:34:48.499Z,0.00
2019-04-10T03:35:48.107Z,0.00
2019-04-10T03:36:47.629Z,0.00
2019-04-10T03:37:48.646Z,0.00
2019-04-10T03:38:57.763Z,0.00
2019-04-10T03:39:48.965Z,0.00
2019-04-10T03:40:48.035Z,0.00
2019-04-10T03:41:48.389Z,0.00
2019-04-10T03:42:47.483Z,0.00
2019-04-10T03:43:47.425Z,0.00
2019-04-10T03:44:47.404Z,0.00
2019-04-10T03:45:47.411Z,0.00
2019-04-10T03:46:47.379Z,0.00
2019-04-10T03:47:47.527Z,0.00
2019-04-10T03:48:47.418Z,0.00
2019-04-10T03:49:47.344Z,0.00
2019-04-10T03:50:47.938Z,0.00
2019-04-10T03:51:47.324Z,0.00
2019-04-10T03:52:47.574Z,0.00
2019-04-10T03:53:47.302Z,0.00
2019-04-10T03:54:48.153Z,0.00
2019-04-10T03:55:47.371Z,0.00
2019-04-10T03:56:47.883Z,0.00
2019-04-10T03:57:47.265Z,0.00
2019-04-10T03:58:47.544Z,0.00
2019-04-10T03:59:47.590Z,0.00
2019-04-10T04:00:47.262Z,0.00
2019-04-10T04:01:47.294Z,0.00
2019-04-10T04:02:48.144Z,0.00
2019-04-10T04:03:47.195Z,0.00
2019-04-10T04:04:48.040Z,0.00
2019-04-10T04:05:47.206Z,4.00
2019-04-10T04:06:48.153Z,4.00
2019-04-10T04:07:47.157Z,0.00
2019-04-10T04:08:49.027Z,0.00
2019-04-10T04:09:48.204Z,4.00
2019-04-10T04:10:47.255Z,0.00
2019-04-10T04:11:47.941Z,4.00
2019-04-10T04:12:47.102Z,4.00
2019-04-10T04:13:47.975Z,8.00
2019-04-10T04:14:47.113Z,8.00
2019-04-10T04:15:47.175Z,8.00
2019-04-10T04:16:47.135Z,12.00
2019-04-10T04:17:47.051Z,12.00
2019-04-10T04:18:47.041Z,12.00
2019-04-10T04:19:47.030Z,16.00
2019-04-10T04:20:47.553Z,20.00
2019-04-10T04:21:48.071Z,24.00
2019-04-10T04:22:47.529Z,32.00
2019-04-10T04:23:46.987Z,36.00
2019-04-10T04:24:46.995Z,44.00
2019-04-10T04:25:46.994Z,48.00
2019-04-10T04:26:47.016Z,60.00
2019-04-10T04:27:46.963Z,68.00
2019-04-10T04:28:46.936Z,80.00
2019-04-10T04:29:47.551Z,92.00
2019-04-10T04:30:47.083Z,108.00
2019-04-10T04:31:46.905Z,124.00
2019-04-10T04:32:46.891Z,140.00
2019-04-10T04:33:46.990Z,164.00
2019-04-10T04:34:47.437Z,184.00
2019-04-10T04:35:47.416Z,212.00
2019-04-10T04:36:48.863Z,236.00
2019-04-10T04:37:46.845Z,264.00
2019-04-10T04:38:46.826Z,292.00
2019-04-10T04:39:47.535Z,328.00
2019-04-10T04:40:46.967Z,364.00
2019-04-10T04:41:47.810Z,400.00
2019-04-10T04:42:47.141Z,444.00
2019-04-10T04:43:47.666Z,488.00
2019-04-10T04:44:47.766Z,532.00
2019-04-10T04:45:46.783Z,580.00
2019-04-10T04:46:46.888Z,632.00
2019-04-10T04:47:46.754Z,688.00
2019-04-10T04:48:47.434Z,740.00
2019-04-10T04:49:46.847Z,800.00
2019-04-10T04:50:47.015Z,860.00
2019-04-10T04:51:46.747Z,920.00
2019-04-10T04:52:46.787Z,988.00
2019-04-10T04:53:46.724Z,1056.00
2019-04-10T04:54:47.696Z,1124.00
2019-04-10T04:55:47.041Z,1196.00
2019-04-10T04:56:46.635Z,1268.00
2019-04-10T04:57:47.112Z,1352.00
2019-04-10T04:58:47.583Z,1428.00
2019-04-10T04:59:46.604Z,1508.00
2019-04-10T05:00:46.633Z,1584.00
2019-04-10T05:01:46.848Z,1668.00
2019-04-10T05:02:47.038Z,1748.00
2019-04-10T05:03:46.562Z,1832.00
2019-04-10T05:04:46.553Z,1916.00
2019-04-10T05:05:46.570Z,2004.00
2019-04-10T05:06:46.535Z,2092.00
2019-04-10T05:07:56.381Z,2184.00
2019-04-10T05:08:48.558Z,2284.00
2019-04-10T05:09:46.500Z,2384.00
2019-04-10T05:10:47.441Z,2480.00
2019-04-10T05:11:46.831Z,2584.00
2019-04-10T05:12:46.462Z,2680.00
2019-04-10T05:13:46.798Z,2768.00
2019-04-10T05:14:46.446Z,2856.00
2019-04-10T05:15:46.455Z,2940.00
2019-04-10T05:16:46.421Z,3020.00
2019-04-10T05:17:47.075Z,3108.00
2019-04-10T05:18:46.406Z,3200.00
2019-04-10T05:19:46.856Z,3288.00
2019-04-10T05:20:50.268Z,3380.00
2019-04-10T05:21:46.368Z,3472.00
2019-04-10T05:22:46.354Z,3568.00
2019-04-10T05:23:47.008Z,3664.00
2019-04-10T05:24:46.739Z,3752.00
2019-04-10T05:25:46.348Z,3836.00
2019-04-10T05:26:46.952Z,3936.00
2019-04-10T05:27:46.923Z,4044.00
2019-04-10T05:28:46.675Z,4156.00
2019-04-10T05:29:47.148Z,4260.00
2019-04-10T05:30:46.330Z,4340.00
2019-04-10T05:31:46.795Z,4416.00
2019-04-10T05:32:57.720Z,4500.00
2019-04-10T05:33:47.175Z,4604.00
2019-04-10T05:34:46.687Z,4716.00
2019-04-10T05:35:46.250Z,4812.00
2019-04-10T05:36:47.002Z,4892.00
2019-04-10T05:37:46.215Z,4980.00
2019-04-10T05:38:46.190Z,5064.00
2019-04-10T05:39:50.628Z,5136.00
2019-04-10T05:40:47.195Z,5200.00
2019-04-10T05:41:47.094Z,5272.00
2019-04-10T05:42:47.183Z,5340.00
2019-04-10T05:43:46.803Z,5416.00
2019-04-10T05:44:46.129Z,5500.00
2019-04-10T05:45:46.499Z,5588.00
2019-04-10T05:46:46.541Z,5660.00
2019-04-10T05:47:46.593Z,5728.00
2019-04-10T05:48:46.249Z,5804.00
2019-04-10T05:49:47.114Z,5888.00
2019-04-10T05:50:54.914Z,5960.00
2019-04-10T05:51:47.922Z,5976.00
2019-04-10T05:52:46.052Z,6016.00
2019-04-10T05:53:47.012Z,6092.00
2019-04-10T05:54:47.209Z,6164.00
2019-04-10T05:55:47.025Z,6232.00
2019-04-10T05:56:46.972Z,6296.00
2019-04-10T05:57:45.988Z,6344.00
2019-04-10T05:58:46.912Z,6396.00
2019-04-10T05:59:45.995Z,6456.00
2019-04-10T06:00:47.075Z,6524.00
2019-04-10T06:01:45.952Z,6596.00
2019-04-10T06:02:46.051Z,6664.00
2019-04-10T06:03:47.136Z,6716.00
2019-04-10T06:04:45.921Z,6796.00
2019-04-10T06:05:46.534Z,6876.00
2019-04-10T06:06:46.482Z,6968.00
2019-04-10T06:07:45.886Z,7048.00
2019-04-10T06:08:46.976Z,7144.00
2019-04-10T06:09:54.070Z,7252.00
2019-04-10T06:10:47.804Z,7352.00
2019-04-10T06:11:47.240Z,7452.00
2019-04-10T06:12:46.733Z,7520.00
2019-04-10T06:13:45.902Z,7592.00
2019-04-10T06:14:46.324Z,7704.00
2019-04-10T06:15:45.824Z,7792.00
2019-04-10T06:16:45.796Z,7860.00
2019-04-10T06:17:46.829Z,7904.00
2019-04-10T06:18:45.801Z,7984.00
2019-04-10T06:19:46.798Z,8060.00
2019-04-10T06:20:45.779Z,8072.00
2019-04-10T06:21:46.223Z,8080.00
2019-04-10T06:22:45.735Z,8164.00
2019-04-10T06:23:45.715Z,8264.00
2019-04-10T06:24:46.759Z,8316.00
2019-04-10T06:25:45.883Z,8408.00
2019-04-10T06:26:45.957Z,8536.00
2019-04-10T06:27:45.677Z,8656.00
2019-04-10T06:28:46.509Z,8688.00
2019-04-10T06:29:46.266Z,8676.00
2019-04-10T06:30:45.692Z,8740.00
2019-04-10T06:31:45.633Z,8820.00
2019-04-10T06:32:45.621Z,8820.00
2019-04-10T06:33:46.431Z,8788.00
2019-04-10T06:34:46.048Z,8788.00
2019-04-10T06:35:46.829Z,8840.00
2019-04-10T06:36:45.904Z,8932.00
2019-04-10T06:37:46.399Z,9036.00
2019-04-10T06:38:45.559Z,9184.00
2019-04-10T06:39:46.419Z,9308.00
2019-04-10T06:40:46.089Z,9376.00
2019-04-10T06:41:46.662Z,9400.00
2019-04-10T06:42:51.638Z,9448.00
2019-04-10T06:43:47.463Z,9536.00
2019-04-10T06:44:46.048Z,9620.00
2019-04-10T06:45:46.166Z,9652.00
2019-04-10T06:46:46.505Z,9684.00
2019-04-10T06:47:46.546Z,9748.00
2019-04-10T06:48:45.450Z,9828.00
2019-04-10T06:49:45.688Z,9912.00
2019-04-10T06:50:45.979Z,9944.00
2019-04-10T06:51:45.447Z,9964.00
2019-04-10T06:52:45.413Z,10000.00
2019-04-10T06:53:45.400Z,10068.00
2019-04-10T06:54:45.390Z,10136.00
2019-04-10T06:55:45.379Z,10220.00
2019-04-10T06:56:47.920Z,10264.00
2019-04-10T06:57:49.166Z,10300.00
2019-04-10T06:58:46.352Z,10360.00
2019-04-10T06:59:46.102Z,10396.00
2019-04-10T07:00:49.740Z,10464.00
2019-04-10T07:01:51.417Z,10552.00
2019-04-10T07:02:46.377Z,10680.00
2019-04-10T07:03:54.587Z,10796.00
2019-04-10T07:04:53.083Z,10920.00
2019-04-10T07:06:01.348Z,11040.00
2019-04-10T07:06:57.936Z,11140.00
2019-04-10T07:07:51.880Z,11240.00
2019-04-10T07:08:48.655Z,11356.00
2019-04-10T07:09:45.434Z,11440.00
2019-04-10T07:10:52.063Z,11548.00
2019-04-10T07:11:47.915Z,11668.00
2019-04-10T07:12:46.200Z,11812.00
2019-04-10T07:13:45.186Z,12048.00
2019-04-10T07:14:48.305Z,13732.00
2019-04-10T07:15:46.928Z,19712.00
2019-04-10T07:16:45.346Z,25152.00
2019-04-10T07:17:45.143Z,26368.00
2019-04-10T07:18:48.571Z,26560.00
2019-04-10T07:19:45.997Z,26624.00
2019-04-10T07:20:46.159Z,26752.00
2019-04-10T07:21:45.126Z,26880.00
2019-04-10T07:22:46.862Z,27008.00
2019-04-10T07:23:45.080Z,27680.00
2019-04-10T07:24:46.123Z,28512.00
2019-04-10T07:25:46.898Z,28608.00
2019-04-10T07:26:47.604Z,28736.00
2019-04-10T07:27:45.916Z,28544.00
2019-04-10T07:28:47.215Z,28480.00
2019-04-10T07:29:45.020Z,28672.00
2019-04-10T07:30:45.672Z,29376.00
2019-04-10T07:31:45.022Z,29856.00
2019-04-10T07:32:48.632Z,29728.00
2019-04-10T07:33:48.896Z,30144.00
2019-04-10T07:34:46.731Z,31296.00
2019-04-10T07:35:44.953Z,31776.00
2019-04-10T07:36:46.331Z,32544.00
2019-04-10T07:37:44.934Z,33184.00
2019-04-10T07:38:44.924Z,32704.00
2019-04-10T07:39:45.122Z,33120.00
2019-04-10T07:40:45.017Z,33728.00
2019-04-10T07:41:45.267Z,33856.00
2019-04-10T07:42:44.883Z,34592.00
2019-04-10T07:43:44.870Z,34976.00
2019-04-10T07:44:44.857Z,35648.00
2019-04-10T07:45:44.855Z,37760.00
2019-04-10T07:46:44.865Z,39072.00
2019-04-10T07:47:44.829Z,38336.00
2019-04-10T07:48:45.556Z,36928.00
2019-04-10T07:49:44.804Z,36512.00
2019-04-10T07:50:46.942Z,35648.00
2019-04-10T07:51:47.248Z,35904.00
2019-04-10T07:52:45.846Z,37088.00
2019-04-10T07:53:44.778Z,37440.00
2019-04-10T07:54:45.153Z,37248.00
2019-04-10T07:55:57.539Z,37760.00
2019-04-10T07:56:45.773Z,37888.00
2019-04-10T07:57:47.313Z,37984.00
2019-04-10T07:58:44.709Z,38848.00
2019-04-10T07:59:45.328Z,40000.00
2019-04-10T08:00:44.906Z,40768.00
2019-04-10T08:01:44.701Z,40576.00
2019-04-10T08:02:44.845Z,40352.00
2019-04-10T08:03:46.434Z,40672.00
2019-04-10T08:04:45.332Z,41088.00
2019-04-10T08:05:44.634Z,42368.00
2019-04-10T08:06:44.757Z,42752.00
2019-04-10T08:07:45.250Z,42304.00
2019-04-10T08:08:44.828Z,42304.00
2019-04-10T08:09:44.593Z,43456.00
2019-04-10T08:10:45.100Z,43744.00
2019-04-10T08:11:44.860Z,43680.00
2019-04-10T08:12:50.038Z,46080.00
2019-04-10T08:13:45.551Z,48960.00
2019-04-10T08:14:44.545Z,49088.00
2019-04-10T08:15:45.380Z,50400.00
2019-04-10T08:16:45.537Z,50400.00
2019-04-10T08:17:44.584Z,49632.00
2019-04-10T08:18:45.631Z,49120.00
2019-04-10T08:19:45.290Z,49408.00
2019-04-10T08:20:44.625Z,50144.00
2019-04-10T08:21:44.489Z,50560.00
2019-04-10T08:22:44.882Z,51456.00
2019-04-10T08:23:44.658Z,50176.00
2019-04-10T08:24:46.954Z,49824.00
2019-04-10T08:25:44.422Z,50784.00
2019-04-10T08:26:45.111Z,51104.00
2019-04-10T08:27:44.400Z,50496.00
2019-04-10T08:28:45.369Z,51296.00
2019-04-10T08:29:44.380Z,52832.00
2019-04-10T08:30:44.367Z,52864.00
2019-04-10T08:31:44.379Z,52704.00
2019-04-10T08:32:53.511Z,53152.00
2019-04-10T08:33:46.191Z,52928.00
2019-04-10T08:34:44.333Z,52032.00
2019-04-10T08:35:45.441Z,53024.00
2019-04-10T08:36:44.327Z,52256.00
2019-04-10T08:37:45.272Z,52704.00
2019-04-10T08:38:44.566Z,52320.00
2019-04-10T08:39:47.315Z,51808.00
2019-04-10T08:40:44.267Z,51872.00
2019-04-10T08:41:44.279Z,54880.00
2019-04-10T08:42:46.044Z,55936.00
2019-04-10T08:43:44.232Z,55296.00
2019-04-10T08:44:44.543Z,54016.00
2019-04-10T08:45:48.667Z,52800.00
2019-04-10T08:46:46.180Z,52352.00
2019-04-10T08:47:44.292Z,52832.00
2019-04-10T08:48:44.177Z,54624.00
2019-04-10T08:49:45.260Z,55008.00
2019-04-10T08:50:44.156Z,56032.00
2019-04-10T08:51:44.168Z,57376.00
2019-04-10T08:52:44.527Z,57760.00
2019-04-10T08:53:44.591Z,57472.00
2019-04-10T08:54:44.635Z,57984.00
2019-04-10T08:55:44.142Z,58656.00
2019-04-10T08:56:44.915Z,58176.00
2019-04-10T08:57:44.080Z,58400.00
2019-04-10T08:58:44.071Z,57504.00
2019-04-10T08:59:45.325Z,57792.00
2019-04-10T09:00:44.854Z,58848.00
2019-04-10T09:01:45.172Z,59008.00
2019-04-10T09:02:44.442Z,59136.00
2019-04-10T09:03:44.018Z,59264.00
2019-04-10T09:04:44.700Z,60128.00
2019-04-10T09:05:44.895Z,59968.00
2019-04-10T09:06:44.021Z,61696.00
2019-04-10T09:07:44.278Z,62656.00
2019-04-10T09:08:43.963Z,63392.00
2019-04-10T09:09:43.956Z,64000.00
2019-04-10T09:10:44.795Z,61280.00
2019-04-10T09:11:44.893Z,64000.00
2019-04-10T09:12:44.923Z,63360.00
2019-04-10T09:13:44.428Z,64736.00
2019-04-10T09:14:43.911Z,64480.00
2019-04-10T09:15:43.892Z,59104.00
2019-04-10T09:16:44.833Z,59040.00
2019-04-10T09:17:43.885Z,59680.00
2019-04-10T09:18:43.859Z,61920.00
2019-04-10T09:19:44.362Z,64512.00
2019-04-10T09:20:43.839Z,65696.00
2019-04-10T09:21:43.854Z,62432.00
2019-04-10T09:23:08.539Z,57248.00
2019-04-10T09:23:51.756Z,53824.00
2019-04-10T09:24:44.796Z,55520.00
2019-04-10T09:25:43.824Z,58912.00
2019-04-10T09:26:44.532Z,61120.00
2019-04-10T09:27:44.222Z,65664.00
2019-04-10T09:28:43.756Z,66400.00
2019-04-10T09:29:44.530Z,67168.00
2019-04-10T09:30:44.826Z,68544.00
2019-04-10T09:31:43.999Z,69344.00
2019-04-10T09:32:44.403Z,69472.00
2019-04-10T09:33:43.705Z,69856.00
2019-04-10T09:34:45.616Z,69952.00
2019-04-10T09:35:44.692Z,70432.00
2019-04-10T09:36:43.795Z,71072.00
2019-04-10T09:37:43.668Z,71936.00
2019-04-10T09:38:44.120Z,72704.00
2019-04-10T09:39:43.645Z,72320.00
2019-04-10T09:40:44.649Z,70304.00
2019-04-10T09:41:43.937Z,71872.00
2019-04-10T09:42:43.845Z,70496.00
2019-04-10T09:43:43.604Z,70048.00
2019-04-10T09:44:44.385Z,71456.00
2019-04-10T09:45:43.794Z,71904.00
2019-04-10T09:46:43.596Z,73472.00
2019-04-10T09:47:43.892Z,73024.00
2019-04-10T09:48:44.258Z,71520.00
2019-04-10T09:49:46.233Z,72384.00
2019-04-10T09:50:43.903Z,71104.00
2019-04-10T09:51:43.541Z,70464.00
2019-04-10T09:52:44.050Z,67616.00
2019-04-10T09:53:43.495Z,65120.00
2019-04-10T09:54:43.638Z,66048.00
2019-04-10T09:55:43.478Z,66080.00
2019-04-10T09:56:44.210Z,67744.00
2019-04-10T09:57:43.452Z,69664.00
2019-04-10T09:58:43.446Z,67936.00
2019-04-10T09:59:43.435Z,70080.00
2019-04-10T10:00:43.793Z,73024.00
2019-04-10T10:01:44.470Z,71200.00
2019-04-10T10:02:43.401Z,71744.00
2019-04-10T10:03:44.419Z,72032.00
2019-04-10T10:04:43.872Z,71616.00
2019-04-10T10:05:44.528Z,78176.00
2019-04-10T10:06:43.385Z,79648.00
2019-04-10T10:07:43.351Z,75040.00
2019-04-10T10:08:43.661Z,79424.00
2019-04-10T10:09:43.325Z,22272.00
2019-04-10T10:10:43.322Z,81184.00
2019-04-10T10:11:43.331Z,78400.00
2019-04-10T10:12:43.300Z,84672.00
2019-04-10T10:13:43.287Z,88736.00
2019-04-10T10:14:44.283Z,36032.00
2019-04-10T10:15:43.265Z,35360.00
2019-04-10T10:16:44.206Z,94240.00
2019-04-10T10:17:43.241Z,84224.00
2019-04-10T10:18:43.662Z,88960.00
2019-04-10T10:19:43.218Z,87808.00
2019-04-10T10:20:43.960Z,24256.00
2019-04-10T10:21:43.229Z,23968.00
2019-04-10T10:22:43.293Z,23904.00
2019-04-10T10:23:43.679Z,39520.00
2019-04-10T10:24:43.170Z,86656.00
2019-04-10T10:25:43.659Z,85408.00
2019-04-10T10:26:45.015Z,93120.00
2019-04-10T10:27:43.140Z,90400.00
2019-04-10T10:28:43.125Z,91168.00
2019-04-10T10:29:44.093Z,44448.00
2019-04-10T10:30:43.961Z,76576.00
2019-04-10T10:31:43.125Z,62720.00
2019-04-10T10:32:43.781Z,89120.00
2019-04-10T10:33:43.075Z,87456.00
2019-04-10T10:34:43.065Z,86464.00
2019-04-10T10:35:43.222Z,85632.00
2019-04-10T10:36:46.207Z,23104.00
2019-04-10T10:37:43.034Z,21056.00
2019-04-10T10:38:43.373Z,21088.00
2019-04-10T10:39:43.138Z,23648.00
2019-04-10T10:40:43.644Z,87680.00
2019-04-10T10:41:43.028Z,85696.00
2019-04-10T10:42:43.523Z,84800.00
2019-04-10T10:43:42.966Z,80256.00
2019-04-10T10:44:42.956Z,82080.00
2019-04-10T10:45:43.011Z,82080.00
2019-04-10T10:46:43.934Z,84992.00
2019-04-10T10:47:42.958Z,83968.00
2019-04-10T10:48:44.091Z,85664.00
2019-04-10T10:49:42.904Z,84256.00
2019-04-10T10:50:43.590Z,83392.00
2019-04-10T10:51:42.890Z,82944.00
2019-04-10T10:52:43.815Z,82880.00
2019-04-10T10:53:42.885Z,82816.00
2019-04-10T10:54:43.253Z,80416.00
2019-04-10T10:55:42.843Z,76928.00
2019-04-10T10:56:42.833Z,79232.00
2019-04-10T10:57:43.582Z,80480.00
2019-04-10T10:58:43.885Z,78912.00
2019-04-10T10:59:43.859Z,80192.00
2019-04-10T11:00:43.170Z,80384.00
2019-04-10T11:01:42.784Z,79584.00
2019-04-10T11:02:43.646Z,81408.00
2019-04-10T11:03:42.764Z,83328.00
2019-04-10T11:04:43.350Z,32864.00
2019-04-10T11:05:42.742Z,48160.00
2019-04-10T11:06:51.439Z,25728.00
2019-04-10T11:07:43.750Z,84416.00
2019-04-10T11:08:43.817Z,84576.00
2019-04-10T11:09:42.696Z,83360.00
2019-04-10T11:10:43.236Z,87808.00
2019-04-10T11:11:42.679Z,86560.00
2019-04-10T11:12:42.700Z,84864.00
2019-04-10T11:13:43.196Z,84320.00
2019-04-10T11:14:43.664Z,84576.00
2019-04-10T11:15:45.525Z,85984.00
2019-04-10T11:16:42.627Z,87040.00
2019-04-10T11:17:42.639Z,85440.00
2019-04-10T11:18:42.611Z,85344.00
2019-04-10T11:19:43.435Z,84576.00
2019-04-10T11:20:43.913Z,82496.00
2019-04-10T11:21:42.970Z,79136.00
2019-04-10T11:22:42.594Z,80544.00
2019-04-10T11:23:42.559Z,81152.00
2019-04-10T11:24:43.430Z,82528.00
2019-04-10T11:25:42.538Z,85088.00
2019-04-10T11:26:42.769Z,88640.00
2019-04-10T11:27:42.577Z,96288.00
2019-04-10T11:28:43.231Z,55232.00
2019-04-10T11:29:42.699Z,101600.00
2019-04-10T11:30:42.623Z,74208.00
2019-04-10T11:31:42.478Z,43264.00
2019-04-10T11:32:52.498Z,93536.00
2019-04-10T11:33:43.855Z,91776.00
2019-04-10T11:34:43.505Z,88608.00
2019-04-10T11:35:43.951Z,87456.00
2019-04-10T11:36:42.933Z,84832.00
2019-04-10T11:37:46.867Z,85600.00
2019-04-10T11:38:44.935Z,87616.00
2019-04-10T11:39:43.889Z,90432.00
2019-04-10T11:40:42.407Z,93632.00
2019-04-10T11:41:43.373Z,98048.00
2019-04-10T11:42:42.915Z,101920.00
2019-04-10T11:43:45.024Z,100992.00
2019-04-10T11:44:45.299Z,98976.00
2019-04-10T11:45:46.538Z,42080.00
2019-04-10T11:46:43.894Z,43840.00
2019-04-10T11:47:42.594Z,40416.00
2019-04-10T11:48:45.489Z,72448.00
2019-04-10T11:49:44.391Z,104480.00
2019-04-10T11:50:44.042Z,40032.00
2019-04-10T11:51:45.302Z,36960.00
2019-04-10T11:52:49.321Z,31424.00
2019-04-10T11:53:45.387Z,33856.00
2019-04-10T11:54:46.002Z,31744.00
2019-04-10T11:56:45.720Z,90176.00
2019-04-10T11:57:45.937Z,88544.00
2019-04-10T11:58:49.509Z,90656.00
2019-04-10T11:59:44.852Z,90368.00
2019-04-10T12:01:44.829Z,88704.00
2019-04-10T12:02:45.440Z,93504.00
2019-04-10T12:03:48.223Z,91584.00
2019-04-10T12:04:50.350Z,93152.00
2019-04-10T12:05:43.761Z,29088.00
2019-04-10T12:06:43.151Z,33600.00
2019-04-10T12:09:08.366Z,56160.00
2019-04-10T12:11:43.094Z,45248.00
2019-04-10T12:12:42.099Z,34880.00
2019-04-10T12:13:42.729Z,32512.00
2019-04-10T12:14:42.064Z,29824.00
2019-04-10T12:15:43.063Z,27520.00
2019-04-10T12:16:42.129Z,25344.00
2019-04-10T12:17:43.090Z,23200.00
2019-04-10T12:18:42.542Z,20992.00
2019-04-10T12:19:42.481Z,22432.00
2019-04-10T12:20:43.081Z,35328.00
2019-04-10T12:21:42.146Z,90912.00
2019-04-10T12:22:41.998Z,89120.00
2019-04-10T12:23:42.967Z,88864.00
2019-04-10T12:24:42.614Z,86368.00
2019-04-10T12:25:42.891Z,88832.00